sensor_id;sensor_type;location;lat;lon;timestamp;temperature;humidity
22850;DHT22;11591;44.792;10.358;2022-09-12T04:30:22;20.30;99.90
22850;DHT22;11591;44.792;10.358;2022-09-12T04:32:48;20.40;99.90
22850;DHT22;11591;44.792;10.358;2022-09-12T04:35:14;20.50;99.90
22850;DHT22;11591;44.792;10.358;2022-09-12T04:37:39;20.50;99.90
22850;DHT22;11591;44.792;10.358;2022-09-12T04:40:05;20.50;99.90
22850;DHT22;11591;44.792;10.358;2022-09-12T04:42:31;20.50;99.90
22850;DHT22;11591;44.792;10.358;2022-09-12T04:44:57;20.50;99.90
22850;DHT22;11591;44.792;10.358;2022-09-12T04:47:23;20.40;99.90
22850;DHT22;11591;44.792;10.358;2022-09-12T04:49:49;20.50;99.90
22850;DHT22;11591;44.792;10.358;2022-09-12T04:52:16;20.50;99.90
22850;DHT22;11591;44.792;10.358;2022-09-12T04:54:41;20.60;99.90
22850;DHT22;11591;44.792;10.358;2022-09-12T04:57:07;20.70;99.90
22850;DHT22;11591;44.792;10.358;2022-09-12T04:59:33;20.70;99.90
22850;DHT22;11591;44.792;10.358;2022-09-12T05:01:59;20.70;99.90
22850;DHT22;11591;44.792;10.358;2022-09-12T05:04:24;20.70;99.90
22850;DHT22;11591;44.792;10.358;2022-09-12T05:06:50;20.70;99.90
22850;DHT22;11591;44.792;10.358;2022-09-12T05:09:16;20.70;99.90
22850;DHT22;11591;44.792;10.358;2022-09-12T05:11:43;20.70;99.90
22850;DHT22;11591;44.792;10.358;2022-09-12T05:14:10;20.50;99.90
22850;DHT22;11591;44.792;10.358;2022-09-12T05:16:36;20.60;99.90
22850;DHT22;11591;44.792;10.358;2022-09-12T05:19:02;20.60;99.90
22850;DHT22;11591;44.792;10.358;2022-09-12T05:21:28;20.60;99.90
22850;DHT22;11591;44.792;10.358;2022-09-12T05:23:55;20.60;99.90
22850;DHT22;11591;44.792;10.358;2022-09-12T05:26:22;20.60;99.90
22850;DHT22;11591;44.792;10.358;2022-09-12T05:28:49;20.60;99.90
22850;DHT22;11591;44.792;10.358;2022-09-12T05:31:21;20.60;99.90
22850;DHT22;11591;44.792;10.358;2022-09-12T05:33:49;20.50;99.90
22850;DHT22;11591;44.792;10.358;2022-09-12T05:36:21;20.50;99.90
22850;DHT22;11591;44.792;10.358;2022-09-12T05:38:47;20.50;99.90
22850;DHT22;11591;44.792;10.358;2022-09-12T05:41:16;20.60;99.90
22850;DHT22;11591;44.792;10.358;2022-09-12T05:43:42;20.70;99.90
22850;DHT22;11591;44.792;10.358;2022-09-12T05:46:11;20.80;99.90
22850;DHT22;11591;44.792;10.358;2022-09-12T05:48:39;20.70;99.90
22850;DHT22;11591;44.792;10.358;2022-09-12T05:51:09;20.80;99.90
22850;DHT22;11591;44.792;10.358;2022-09-12T05:53:36;20.80;99.90
22850;DHT22;11591;44.792;10.358;2022-09-12T05:56:07;20.70;99.90
22850;DHT22;11591;44.792;10.358;2022-09-12T05:58:35;20.70;99.90
22850;DHT22;11591;44.792;10.358;2022-09-12T06:01:03;20.50;99.90
22850;DHT22;11591;44.792;10.358;2022-09-12T06:03:29;20.30;99.90
22850;DHT22;11591;44.792;10.358;2022-09-12T06:05:55;20.10;99.90
22850;DHT22;11591;44.792;10.358;2022-09-12T06:08:20;20.10;99.90
22850;DHT22;11591;44.792;10.358;2022-09-12T06:10:46;20.00;99.90
22850;DHT22;11591;44.792;10.358;2022-09-12T06:13:12;20.20;99.90
22850;DHT22;11591;44.792;10.358;2022-09-12T06:15:38;20.30;99.90
22850;DHT22;11591;44.792;10.358;2022-09-12T06:18:04;20.30;99.90
22850;DHT22;11591;44.792;10.358;2022-09-12T06:20:30;20.50;99.90
22850;DHT22;11591;44.792;10.358;2022-09-12T06:22:57;20.60;99.90
22850;DHT22;11591;44.792;10.358;2022-09-12T06:25:23;20.70;99.90
22850;DHT22;11591;44.792;10.358;2022-09-12T06:27:49;20.70;99.90
22850;DHT22;11591;44.792;10.358;2022-09-12T06:30:15;20.50;99.90
22850;DHT22;11591;44.792;10.358;2022-09-12T06:32:42;20.50;99.90
22850;DHT22;11591;44.792;10.358;2022-09-12T06:35:08;20.30;99.90
22850;DHT22;11591;44.792;10.358;2022-09-12T06:37:33;20.30;99.90
22850;DHT22;11591;44.792;10.358;2022-09-12T06:39:59;20.30;99.90
22850;DHT22;11591;44.792;10.358;2022-09-12T06:42:25;20.20;99.90
22850;DHT22;11591;44.792;10.358;2022-09-12T06:44:55;20.30;99.90
22850;DHT22;11591;44.792;10.358;2022-09-12T06:47:21;20.50;99.90
22850;DHT22;11591;44.792;10.358;2022-09-12T06:49:48;20.50;99.90
22850;DHT22;11591;44.792;10.358;2022-09-12T06:52:13;20.60;99.90
22850;DHT22;11591;44.792;10.358;2022-09-12T06:54:39;20.70;99.90
22850;DHT22;11591;44.792;10.358;2022-09-12T06:57:05;20.80;99.90
22850;DHT22;11591;44.792;10.358;2022-09-12T06:59:31;20.90;99.90
22850;DHT22;11591;44.792;10.358;2022-09-12T07:01:57;21.00;99.90
22850;DHT22;11591;44.792;10.358;2022-09-12T07:04:23;21.00;99.90
22850;DHT22;11591;44.792;10.358;2022-09-12T07:06:48;21.10;99.90
22850;DHT22;11591;44.792;10.358;2022-09-12T07:09:15;21.00;99.90
22850;DHT22;11591;44.792;10.358;2022-09-12T07:11:42;21.10;99.90
22850;DHT22;11591;44.792;10.358;2022-09-12T07:14:11;21.10;99.90
22850;DHT22;11591;44.792;10.358;2022-09-12T07:16:37;21.10;99.90
22850;DHT22;11591;44.792;10.358;2022-09-12T07:19:05;21.20;99.90
22850;DHT22;11591;44.792;10.358;2022-09-12T07:21:31;21.20;99.90
22850;DHT22;11591;44.792;10.358;2022-09-12T07:23:57;21.20;99.90
22850;DHT22;11591;44.792;10.358;2022-09-12T07:26:25;21.30;99.90
22850;DHT22;11591;44.792;10.358;2022-09-12T07:28:53;21.30;99.90
22850;DHT22;11591;44.792;10.358;2022-09-12T07:31:22;21.40;99.90
22850;DHT22;11591;44.792;10.358;2022-09-12T07:33:48;21.50;99.90
22850;DHT22;11591;44.792;10.358;2022-09-12T07:36:16;21.50;99.90
22850;DHT22;11591;44.792;10.358;2022-09-12T07:38:43;21.50;99.90
22850;DHT22;11591;44.792;10.358;2022-09-12T07:43:39;21.50;99.90
22850;DHT22;11591;44.792;10.358;2022-09-12T07:46:06;21.50;99.90
22850;DHT22;11591;44.792;10.358;2022-09-12T07:48:32;21.60;99.90
22850;DHT22;11591;44.792;10.358;2022-09-12T07:50:59;21.50;99.90
22850;DHT22;11591;44.792;10.358;2022-09-12T07:53:29;21.50;99.90
22850;DHT22;11591;44.792;10.358;2022-09-12T07:55:56;21.50;99.90
22850;DHT22;11591;44.792;10.358;2022-09-12T07:58:23;21.40;99.90
22850;DHT22;11591;44.792;10.358;2022-09-12T08:00:49;21.40;99.90
22850;DHT22;11591;44.792;10.358;2022-09-12T08:03:15;21.50;99.90
22850;DHT22;11591;44.792;10.358;2022-09-12T08:05:41;21.60;99.90
22850;DHT22;11591;44.792;10.358;2022-09-12T08:08:07;21.80;99.90
22850;DHT22;11591;44.792;10.358;2022-09-12T08:10:33;21.90;99.90
22850;DHT22;11591;44.792;10.358;2022-09-12T08:12:59;21.90;99.90
22850;DHT22;11591;44.792;10.358;2022-09-12T08:15:25;22.00;99.90
22850;DHT22;11591;44.792;10.358;2022-09-12T08:17:50;22.10;99.90
22850;DHT22;11591;44.792;10.358;2022-09-12T08:20:16;22.20;99.90
22850;DHT22;11591;44.792;10.358;2022-09-12T08:22:43;22.20;99.90
22850;DHT22;11591;44.792;10.358;2022-09-12T08:25:09;22.20;99.90
22850;DHT22;11591;44.792;10.358;2022-09-12T08:27:35;22.20;99.90
22850;DHT22;11591;44.792;10.358;2022-09-12T08:30:01;22.20;99.90
22850;DHT22;11591;44.792;10.358;2022-09-12T08:32:26;22.20;99.90
22850;DHT22;11591;44.792;10.358;2022-09-12T08:34:52;22.20;99.90
22850;DHT22;11591;44.792;10.358;2022-09-12T08:37:18;22.10;99.90
22850;DHT22;11591;44.792;10.358;2022-09-12T08:39:44;22.20;99.90
22850;DHT22;11591;44.792;10.358;2022-09-12T08:42:23;22.20;99.90
22850;DHT22;11591;44.792;10.358;2022-09-12T08:47:36;22.40;99.90
22850;DHT22;11591;44.792;10.358;2022-09-12T08:50:16;22.50;99.90
22850;DHT22;11591;44.792;10.358;2022-09-12T08:53:05;22.50;99.90
22850;DHT22;11591;44.792;10.358;2022-09-12T08:55:50;22.60;99.90
22850;DHT22;11591;44.792;10.358;2022-09-12T08:58:20;22.60;99.90
22850;DHT22;11591;44.792;10.358;2022-09-12T09:10:10;22.70;99.90
22850;DHT22;11591;44.792;10.358;2022-09-12T09:18:14;22.90;99.90
22850;DHT22;11591;44.792;10.358;2022-09-12T09:20:53;23.00;99.90
22850;DHT22;11591;44.792;10.358;2022-09-12T09:23:43;23.00;99.90
22850;DHT22;11591;44.792;10.358;2022-09-12T09:26:22;23.10;99.90
22850;DHT22;11591;44.792;10.358;2022-09-12T09:28:53;23.20;99.90
22850;DHT22;11591;44.792;10.358;2022-09-12T09:31:22;23.20;99.90
22850;DHT22;11591;44.792;10.358;2022-09-12T09:33:50;23.20;99.90
22850;DHT22;11591;44.792;10.358;2022-09-12T09:44:00;23.40;99.90
22850;DHT22;11591;44.792;10.358;2022-09-12T09:46:27;23.40;99.90
22850;DHT22;11591;44.792;10.358;2022-09-12T09:48:54;23.40;99.90
22850;DHT22;11591;44.792;10.358;2022-09-12T09:51:31;23.40;99.90
22850;DHT22;11591;44.792;10.358;2022-09-12T09:54:09;23.40;99.90
22850;DHT22;11591;44.792;10.358;2022-09-12T09:56:40;23.40;99.90
22850;DHT22;11591;44.792;10.358;2022-09-12T09:59:18;23.40;99.90
22850;DHT22;11591;44.792;10.358;2022-09-12T10:01:51;23.40;99.90
22850;DHT22;11591;44.792;10.358;2022-09-12T10:04:30;23.50;99.90
22850;DHT22;11591;44.792;10.358;2022-09-12T10:07:01;23.60;99.90
22850;DHT22;11591;44.792;10.358;2022-09-12T10:09:29;23.60;99.90
22850;DHT22;11591;44.792;10.358;2022-09-12T10:11:58;23.60;99.90
22850;DHT22;11591;44.792;10.358;2022-09-12T10:14:34;23.70;99.90
22850;DHT22;11591;44.792;10.358;2022-09-12T10:17:01;23.80;99.90
22850;DHT22;11591;44.792;10.358;2022-09-12T10:19:37;23.80;99.90
22850;DHT22;11591;44.792;10.358;2022-09-12T10:22:04;23.90;99.90
22850;DHT22;11591;44.792;10.358;2022-09-12T10:24:38;23.90;99.90
22850;DHT22;11591;44.792;10.358;2022-09-12T10:29:50;24.00;99.90
22850;DHT22;11591;44.792;10.358;2022-09-12T10:34:58;24.10;99.90
22850;DHT22;11591;44.792;10.358;2022-09-12T10:37:31;24.20;99.90
22850;DHT22;11591;44.792;10.358;2022-09-12T10:39:59;24.30;99.90
22850;DHT22;11591;44.792;10.358;2022-09-12T10:45:29;24.40;99.90
22850;DHT22;11591;44.792;10.358;2022-09-12T10:48:00;24.40;99.90
22850;DHT22;11591;44.792;10.358;2022-09-12T10:50:28;24.50;99.90
22850;DHT22;11591;44.792;10.358;2022-09-12T10:52:57;24.50;99.90
22850;DHT22;11591;44.792;10.358;2022-09-12T10:55:37;24.50;99.90
22850;DHT22;11591;44.792;10.358;2022-09-12T10:58:25;24.60;99.90
22850;DHT22;11591;44.792;10.358;2022-09-12T11:03:58;24.60;99.90
22850;DHT22;11591;44.792;10.358;2022-09-12T11:09:27;24.70;99.90
22850;DHT22;11591;44.792;10.358;2022-09-12T11:14:57;24.80;99.90
22850;DHT22;11591;44.792;10.358;2022-09-12T11:17:50;24.90;99.90
22850;DHT22;11591;44.792;10.358;2022-09-12T11:34:08;25.20;99.90
22850;DHT22;11591;44.792;10.358;2022-09-12T11:39:43;25.30;99.90
22850;DHT22;11591;44.792;10.358;2022-09-12T11:42:33;25.40;99.90
22850;DHT22;11591;44.792;10.358;2022-09-12T11:45:18;25.40;99.90
22850;DHT22;11591;44.792;10.358;2022-09-12T11:47:52;25.50;99.90
22850;DHT22;11591;44.792;10.358;2022-09-12T11:50:25;25.50;99.90
22850;DHT22;11591;44.792;10.358;2022-09-12T11:52:54;25.60;99.90
22850;DHT22;11591;44.792;10.358;2022-09-12T11:55:26;25.50;99.90
22850;DHT22;11591;44.792;10.358;2022-09-12T11:57:56;25.60;99.90
22850;DHT22;11591;44.792;10.358;2022-09-12T12:00:47;25.60;99.90
22850;DHT22;11591;44.792;10.358;2022-09-12T12:03:22;25.70;99.90
22850;DHT22;11591;44.792;10.358;2022-09-12T12:05:56;25.70;99.90
22850;DHT22;11591;44.792;10.358;2022-09-12T12:08:25;25.80;99.90
22850;DHT22;11591;44.792;10.358;2022-09-12T12:10:59;25.90;99.90
22850;DHT22;11591;44.792;10.358;2022-09-12T12:13:33;26.00;99.90
22850;DHT22;11591;44.792;10.358;2022-09-12T12:18:32;26.00;99.90
22850;DHT22;11591;44.792;10.358;2022-09-12T12:34:34;26.40;99.90
22850;DHT22;11591;44.792;10.358;2022-09-12T12:47:41;26.70;99.90
22850;DHT22;11591;44.792;10.358;2022-09-12T12:55:29;26.90;99.90
22850;DHT22;11591;44.792;10.358;2022-09-12T13:00:47;27.10;99.90
22850;DHT22;11591;44.792;10.358;2022-09-12T13:03:29;27.30;99.90
22850;DHT22;11591;44.792;10.358;2022-09-12T13:06:02;27.40;99.90
22850;DHT22;11591;44.792;10.358;2022-09-12T13:08:35;27.60;99.90
22850;DHT22;11591;44.792;10.358;2022-09-12T13:11:28;27.70;99.90
22850;DHT22;11591;44.792;10.358;2022-09-12T13:14:04;27.70;99.90
22850;DHT22;11591;44.792;10.358;2022-09-12T13:16:51;27.70;99.90
22850;DHT22;11591;44.792;10.358;2022-09-12T13:19:28;27.70;99.90
22850;DHT22;11591;44.792;10.358;2022-09-12T13:22:05;27.80;99.90
22850;DHT22;11591;44.792;10.358;2022-09-12T13:24:32;27.70;99.90
22850;DHT22;11591;44.792;10.358;2022-09-12T13:26:58;27.70;99.90
22850;DHT22;11591;44.792;10.358;2022-09-12T13:29:26;27.70;99.90
22850;DHT22;11591;44.792;10.358;2022-09-12T13:32:02;27.60;99.90
22850;DHT22;11591;44.792;10.358;2022-09-12T13:34:33;27.70;99.90
22850;DHT22;11591;44.792;10.358;2022-09-12T13:37:37;27.60;99.90
22850;DHT22;11591;44.792;10.358;2022-09-12T13:42:47;27.70;99.90
22850;DHT22;11591;44.792;10.358;2022-09-12T13:47:45;27.80;99.90
22850;DHT22;11591;44.792;10.358;2022-09-12T13:50:23;27.80;99.90
22850;DHT22;11591;44.792;10.358;2022-09-12T13:52:57;27.90;99.90
22850;DHT22;11591;44.792;10.358;2022-09-12T13:55:36;27.90;99.90
22850;DHT22;11591;44.792;10.358;2022-09-12T13:58:04;27.90;99.90
22850;DHT22;11591;44.792;10.358;2022-09-12T14:00:33;28.00;99.90
22850;DHT22;11591;44.792;10.358;2022-09-12T14:03:00;28.10;99.90
22850;DHT22;11591;44.792;10.358;2022-09-12T14:05:53;28.10;99.90
22850;DHT22;11591;44.792;10.358;2022-09-12T14:08:21;28.20;99.90
22850;DHT22;11591;44.792;10.358;2022-09-12T14:10:48;28.30;99.90
22850;DHT22;11591;44.792;10.358;2022-09-12T14:13:20;28.30;99.90
22850;DHT22;11591;44.792;10.358;2022-09-12T14:15:49;28.50;99.90
22850;DHT22;11591;44.792;10.358;2022-09-12T14:18:25;28.60;99.90
22850;DHT22;11591;44.792;10.358;2022-09-12T14:20:53;29.10;99.90
22850;DHT22;11591;44.792;10.358;2022-09-12T14:23:31;29.60;99.90
22850;DHT22;11591;44.792;10.358;2022-09-12T14:26:00;30.20;99.90
22850;DHT22;11591;44.792;10.358;2022-09-12T14:28:28;30.90;99.90
22850;DHT22;11591;44.792;10.358;2022-09-12T14:31:19;31.50;99.90
22850;DHT22;11591;44.792;10.358;2022-09-12T14:33:50;32.00;99.90
22850;DHT22;11591;44.792;10.358;2022-09-12T14:36:34;32.40;99.90
22850;DHT22;11591;44.792;10.358;2022-09-12T14:39:04;32.70;99.90
22850;DHT22;11591;44.792;10.358;2022-09-12T14:41:36;32.90;99.80
22850;DHT22;11591;44.792;10.358;2022-09-12T14:44:09;33.00;99.60
22850;DHT22;11591;44.792;10.358;2022-09-12T14:46:40;32.90;99.50
22850;DHT22;11591;44.792;10.358;2022-09-12T15:02:33;31.40;99.60
22850;DHT22;11591;44.792;10.358;2022-09-12T15:15:29;30.40;99.90
22850;DHT22;11591;44.792;10.358;2022-09-12T15:17:55;30.30;99.90
22850;DHT22;11591;44.792;10.358;2022-09-12T15:20:21;30.30;99.90
22850;DHT22;11591;44.792;10.358;2022-09-12T15:22:47;30.20;99.90
22850;DHT22;11591;44.792;10.358;2022-09-12T15:25:13;30.10;99.90
22850;DHT22;11591;44.792;10.358;2022-09-12T15:27:39;30.10;99.90
22850;DHT22;11591;44.792;10.358;2022-09-12T15:30:08;30.10;99.90
22850;DHT22;11591;44.792;10.358;2022-09-12T15:32:35;30.10;99.90
22850;DHT22;11591;44.792;10.358;2022-09-12T15:35:01;30.00;99.90
22850;DHT22;11591;44.792;10.358;2022-09-12T15:37:27;30.10;99.90
22850;DHT22;11591;44.792;10.358;2022-09-12T15:39:53;30.00;99.90
22850;DHT22;11591;44.792;10.358;2022-09-12T15:42:26;30.00;99.90
22850;DHT22;11591;44.792;10.358;2022-09-12T15:44:52;30.00;99.90
22850;DHT22;11591;44.792;10.358;2022-09-12T15:47:18;30.00;99.90
22850;DHT22;11591;44.792;10.358;2022-09-12T15:49:44;30.00;99.90
22850;DHT22;11591;44.792;10.358;2022-09-12T15:52:14;30.00;99.90
22850;DHT22;11591;44.792;10.358;2022-09-12T15:54:40;30.10;99.90
22850;DHT22;11591;44.792;10.358;2022-09-12T15:57:07;30.30;99.90
22850;DHT22;11591;44.792;10.358;2022-09-12T15:59:33;30.40;99.90
22850;DHT22;11591;44.792;10.358;2022-09-12T16:01:59;30.40;99.90
22850;DHT22;11591;44.792;10.358;2022-09-12T16:04:26;30.40;99.90
22850;DHT22;11591;44.792;10.358;2022-09-12T16:06:53;30.40;99.90
22850;DHT22;11591;44.792;10.358;2022-09-12T16:09:20;30.40;99.90
22850;DHT22;11591;44.792;10.358;2022-09-12T16:11:47;30.40;99.90
22850;DHT22;11591;44.792;10.358;2022-09-12T16:14:13;30.40;99.70
22850;DHT22;11591;44.792;10.358;2022-09-12T16:16:40;30.50;99.70
22850;DHT22;11591;44.792;10.358;2022-09-12T16:19:07;30.40;99.80
22850;DHT22;11591;44.792;10.358;2022-09-12T16:21:37;30.40;99.70
22850;DHT22;11591;44.792;10.358;2022-09-12T16:24:03;30.40;99.80
22850;DHT22;11591;44.792;10.358;2022-09-12T16:26:29;30.40;99.80
22850;DHT22;11591;44.792;10.358;2022-09-12T16:28:56;30.30;99.80
22850;DHT22;11591;44.792;10.358;2022-09-12T16:31:23;30.30;99.90
22850;DHT22;11591;44.792;10.358;2022-09-12T16:33:49;30.30;99.90
22850;DHT22;11591;44.792;10.358;2022-09-12T16:36:18;30.30;99.90
22850;DHT22;11591;44.792;10.358;2022-09-12T16:38:49;30.30;99.90
22850;DHT22;11591;44.792;10.358;2022-09-12T16:41:17;30.30;99.90
22850;DHT22;11591;44.792;10.358;2022-09-12T16:43:43;30.20;99.90
22850;DHT22;11591;44.792;10.358;2022-09-12T16:48:47;30.00;99.90
22850;DHT22;11591;44.792;10.358;2022-09-12T16:51:14;30.00;99.90
22850;DHT22;11591;44.792;10.358;2022-09-12T16:53:41;29.90;99.90
22850;DHT22;11591;44.792;10.358;2022-09-12T16:56:08;29.90;99.90
22850;DHT22;11591;44.792;10.358;2022-09-12T16:58:35;29.80;99.90
22850;DHT22;11591;44.792;10.358;2022-09-12T17:01:03;29.70;99.90
22850;DHT22;11591;44.792;10.358;2022-09-12T17:03:30;29.60;99.90
22850;DHT22;11591;44.792;10.358;2022-09-12T17:06:00;29.50;99.90
22850;DHT22;11591;44.792;10.358;2022-09-12T17:08:29;29.50;99.90
22850;DHT22;11591;44.792;10.358;2022-09-12T17:11:01;29.40;99.90
22850;DHT22;11591;44.792;10.358;2022-09-12T17:13:27;29.30;99.90
22850;DHT22;11591;44.792;10.358;2022-09-12T17:15:53;29.20;99.90
22850;DHT22;11591;44.792;10.358;2022-09-12T17:18:20;29.10;99.90
22850;DHT22;11591;44.792;10.358;2022-09-12T17:20:46;29.00;99.90
22850;DHT22;11591;44.792;10.358;2022-09-12T17:23:12;28.80;99.90
22850;DHT22;11591;44.792;10.358;2022-09-12T17:25:38;28.70;99.90
22850;DHT22;11591;44.792;10.358;2022-09-12T17:28:04;28.60;99.90
22850;DHT22;11591;44.792;10.358;2022-09-12T17:30:34;28.50;99.90
22850;DHT22;11591;44.792;10.358;2022-09-12T17:33:00;28.40;99.90
22850;DHT22;11591;44.792;10.358;2022-09-12T17:35:26;28.20;99.90
22850;DHT22;11591;44.792;10.358;2022-09-12T17:37:52;28.10;99.90
22850;DHT22;11591;44.792;10.358;2022-09-12T17:40:19;28.00;99.90
22850;DHT22;11591;44.792;10.358;2022-09-12T17:42:45;27.90;99.90
22850;DHT22;11591;44.792;10.358;2022-09-12T17:45:11;27.80;99.90
22850;DHT22;11591;44.792;10.358;2022-09-12T17:47:39;27.70;99.90
22850;DHT22;11591;44.792;10.358;2022-09-12T17:50:05;27.60;99.90
22850;DHT22;11591;44.792;10.358;2022-09-12T17:52:32;27.60;99.90
22850;DHT22;11591;44.792;10.358;2022-09-12T17:54:57;27.50;99.90
22850;DHT22;11591;44.792;10.358;2022-09-12T17:57:23;27.40;99.90
22850;DHT22;11591;44.792;10.358;2022-09-12T17:59:50;27.30;99.90
22850;DHT22;11591;44.792;10.358;2022-09-12T18:02:15;27.30;99.90
22850;DHT22;11591;44.792;10.358;2022-09-12T18:04:43;27.20;99.90
22850;DHT22;11591;44.792;10.358;2022-09-12T18:07:14;27.20;99.90
22850;DHT22;11591;44.792;10.358;2022-09-12T18:09:43;27.10;99.90
22850;DHT22;11591;44.792;10.358;2022-09-12T18:12:09;27.00;99.90
22850;DHT22;11591;44.792;10.358;2022-09-12T18:14:35;27.00;99.90
22850;DHT22;11591;44.792;10.358;2022-09-12T18:17:03;27.00;99.90
22850;DHT22;11591;44.792;10.358;2022-09-12T18:19:31;26.90;99.90
22850;DHT22;11591;44.792;10.358;2022-09-12T18:21:57;26.80;99.90
22850;DHT22;11591;44.792;10.358;2022-09-12T18:24:23;26.80;99.90
22850;DHT22;11591;44.792;10.358;2022-09-12T18:26:49;26.80;99.90
22850;DHT22;11591;44.792;10.358;2022-09-12T18:29:15;26.80;99.90
22850;DHT22;11591;44.792;10.358;2022-09-12T18:31:42;26.70;99.90
22850;DHT22;11591;44.792;10.358;2022-09-12T18:34:10;26.70;99.90
22850;DHT22;11591;44.792;10.358;2022-09-12T18:36:39;26.70;99.90
22850;DHT22;11591;44.792;10.358;2022-09-12T18:39:05;26.60;99.90
22850;DHT22;11591;44.792;10.358;2022-09-12T18:41:31;26.60;99.90
22850;DHT22;11591;44.792;10.358;2022-09-12T18:43:59;26.60;99.90
22850;DHT22;11591;44.792;10.358;2022-09-12T18:46:27;26.60;99.90
22850;DHT22;11591;44.792;10.358;2022-09-12T18:48:57;26.60;99.90
22850;DHT22;11591;44.792;10.358;2022-09-12T18:51:25;26.60;99.90
22850;DHT22;11591;44.792;10.358;2022-09-12T18:53:57;26.50;99.90
22850;DHT22;11591;44.792;10.358;2022-09-12T18:56:25;26.50;99.90
22850;DHT22;11591;44.792;10.358;2022-09-12T18:58:55;26.50;99.90
22850;DHT22;11591;44.792;10.358;2022-09-12T19:01:23;26.50;99.90
22850;DHT22;11591;44.792;10.358;2022-09-12T19:03:50;26.50;99.90
22850;DHT22;11591;44.792;10.358;2022-09-12T19:06:37;26.50;99.90
22850;DHT22;11591;44.792;10.358;2022-09-12T19:09:04;26.50;99.90
22850;DHT22;11591;44.792;10.358;2022-09-12T19:11:37;26.50;99.90
22850;DHT22;11591;44.792;10.358;2022-09-12T19:14:03;26.50;99.90
22850;DHT22;11591;44.792;10.358;2022-09-12T19:16:30;26.40;99.90
22850;DHT22;11591;44.792;10.358;2022-09-12T19:18:56;26.40;99.90
22850;DHT22;11591;44.792;10.358;2022-09-12T19:21:27;26.40;99.90
22850;DHT22;11591;44.792;10.358;2022-09-12T19:23:59;26.40;99.90
22850;DHT22;11591;44.792;10.358;2022-09-12T19:26:25;26.40;99.90
22850;DHT22;11591;44.792;10.358;2022-09-12T19:28:53;26.30;99.90
22850;DHT22;11591;44.792;10.358;2022-09-12T19:31:19;26.30;99.90
22850;DHT22;11591;44.792;10.358;2022-09-12T19:33:46;26.20;99.90
22850;DHT22;11591;44.792;10.358;2022-09-12T19:36:15;26.20;99.90
22850;DHT22;11591;44.792;10.358;2022-09-12T19:38:41;26.10;99.90
22850;DHT22;11591;44.792;10.358;2022-09-12T19:41:10;26.00;99.90
22850;DHT22;11591;44.792;10.358;2022-09-12T19:43:36;25.90;99.90
22850;DHT22;11591;44.792;10.358;2022-09-12T19:46:02;25.90;99.90
22850;DHT22;11591;44.792;10.358;2022-09-12T19:48:29;25.90;99.90
22850;DHT22;11591;44.792;10.358;2022-09-12T19:51:04;25.80;99.90
22850;DHT22;11591;44.792;10.358;2022-09-12T19:53:30;25.80;99.90
22850;DHT22;11591;44.792;10.358;2022-09-12T19:56:00;25.80;99.90
22850;DHT22;11591;44.792;10.358;2022-09-12T19:58:27;25.80;99.90
22850;DHT22;11591;44.792;10.358;2022-09-12T20:00:54;25.80;99.90
22850;DHT22;11591;44.792;10.358;2022-09-12T20:03:21;25.70;99.90
22850;DHT22;11591;44.792;10.358;2022-09-12T20:05:47;25.70;99.90
22850;DHT22;11591;44.792;10.358;2022-09-12T20:08:13;25.70;99.90
22850;DHT22;11591;44.792;10.358;2022-09-12T20:10:38;25.70;99.90
22850;DHT22;11591;44.792;10.358;2022-09-12T20:13:04;25.60;99.90
22850;DHT22;11591;44.792;10.358;2022-09-12T20:15:30;25.60;99.90
22850;DHT22;11591;44.792;10.358;2022-09-12T20:17:56;25.60;99.90
22850;DHT22;11591;44.792;10.358;2022-09-12T20:20:23;25.50;99.90
22850;DHT22;11591;44.792;10.358;2022-09-12T20:22:52;25.50;99.90
22850;DHT22;11591;44.792;10.358;2022-09-12T20:25:18;25.60;99.90
22850;DHT22;11591;44.792;10.358;2022-09-12T20:27:45;25.60;99.90
22850;DHT22;11591;44.792;10.358;2022-09-12T20:30:12;25.50;99.90
22850;DHT22;11591;44.792;10.358;2022-09-12T20:32:39;25.50;99.90
22850;DHT22;11591;44.792;10.358;2022-09-12T20:35:06;25.50;99.90
22850;DHT22;11591;44.792;10.358;2022-09-12T20:37:32;25.40;99.90
22850;DHT22;11591;44.792;10.358;2022-09-12T20:39:58;25.40;99.90
22850;DHT22;11591;44.792;10.358;2022-09-12T20:42:24;25.30;99.90
22850;DHT22;11591;44.792;10.358;2022-09-12T20:44:49;25.30;99.90
22850;DHT22;11591;44.792;10.358;2022-09-12T20:47:17;25.30;99.90
22850;DHT22;11591;44.792;10.358;2022-09-12T20:49:42;25.30;99.90
22850;DHT22;11591;44.792;10.358;2022-09-12T20:52:08;25.30;99.90
22850;DHT22;11591;44.792;10.358;2022-09-12T20:54:34;25.30;99.90
22850;DHT22;11591;44.792;10.358;2022-09-12T20:57:00;25.20;99.90
22850;DHT22;11591;44.792;10.358;2022-09-12T20:59:25;25.10;99.90
22850;DHT22;11591;44.792;10.358;2022-09-12T21:01:51;25.10;99.90
